FIN178G ENGM-EFHK
Flight info
| Callsign | FIN178G |
|---|---|
| Flight time | 1h 3m |
| Altitude | 35000 |
| Route | MASEV DCT OTKIL Y368 LAKUT |
| Aircraft | A320/M-SDE3FGHIRWY/LB1 |
Departure
| Time | 2026-05-07 20:13 |
|---|---|
| Airport | Oslo-Gardermoen International Airport (ENGM) |
Arrival
| Time | 2026-05-07 21:16 |
|---|---|
| Airport | Helsinki Vantaa Airport (EFHK) |
| Time | Latitude | Longitude | Altitude | Speed | Heading |
|---|---|---|---|---|---|
| 2026-05-07 19:33 | 60.19631 | 11.09959 | 680 ft | 0 kts | 106° |
| 2026-05-07 20:02 | 60.19634 | 11.09937 | 659 ft | 4 kts | 106° |
| 2026-05-07 20:02 | 60.19641 | 11.09885 | 684 ft | 4 kts | 106° |
| 2026-05-07 20:02 | 60.19649 | 11.09833 | 681 ft | 4 kts | 106° |
| 2026-05-07 20:03 | 60.19655 | 11.09787 | 679 ft | 1 kts | 106° |
| 2026-05-07 20:03 | 60.19655 | 11.09785 | 679 ft | 0 kts | 106° |
| 2026-05-07 20:07 | 60.19664 | 11.09790 | 680 ft | 2 kts | 9° |
| 2026-05-07 20:07 | 60.19715 | 11.09778 | 685 ft | 11 kts | 3° |
| 2026-05-07 20:07 | 60.19807 | 11.09823 | 684 ft | 16 kts | 15° |
| 2026-05-07 20:07 | 60.19927 | 11.09892 | 683 ft | 20 kts | 16° |
| 2026-05-07 20:08 | 60.20025 | 11.09958 | 684 ft | 14 kts | 35° |
| 2026-05-07 20:08 | 60.20027 | 11.10144 | 685 ft | 16 kts | 106° |
| 2026-05-07 20:08 | 60.19993 | 11.10380 | 680 ft | 20 kts | 106° |
| 2026-05-07 20:08 | 60.19954 | 11.10655 | 685 ft | 22 kts | 106° |
| 2026-05-07 20:09 | 60.19910 | 11.10964 | 680 ft | 21 kts | 106° |
| 2026-05-07 20:09 | 60.19874 | 11.11223 | 683 ft | 17 kts | 106° |
| 2026-05-07 20:09 | 60.19843 | 11.11441 | 683 ft | 10 kts | 105° |
| 2026-05-07 20:10 | 60.19934 | 11.11578 | 682 ft | 10 kts | 16° |
| 2026-05-07 20:10 | 60.19999 | 11.11616 | 686 ft | 10 kts | 16° |
| 2026-05-07 20:10 | 60.20066 | 11.11655 | 684 ft | 11 kts | 16° |
| 2026-05-07 20:10 | 60.20136 | 11.11696 | 684 ft | 10 kts | 18° |
| 2026-05-07 20:11 | 60.20171 | 11.11818 | 683 ft | 14 kts | 102° |
| 2026-05-07 20:11 | 60.20149 | 11.11978 | 685 ft | 11 kts | 105° |
| 2026-05-07 20:11 | 60.20129 | 11.12104 | 689 ft | 11 kts | 111° |
| 2026-05-07 20:11 | 60.20064 | 11.12210 | 685 ft | 10 kts | 177° |
| 2026-05-07 20:12 | 60.20006 | 11.12183 | 687 ft | 8 kts | 196° |
| 2026-05-07 20:12 | 60.19981 | 11.12168 | 683 ft | 0 kts | 195° |
| 2026-05-07 20:12 | 60.19978 | 11.12167 | 684 ft | 3 kts | 195° |
| 2026-05-07 20:12 | 60.19816 | 11.12076 | 687 ft | 56 kts | 195° |
| 2026-05-07 20:13 | 60.19199 | 11.11725 | 684 ft | 125 kts | 196° |
| 2026-05-07 20:13 | 60.18183 | 11.11139 | 720 ft | 173 kts | 196° |
| 2026-05-07 20:13 | 60.17006 | 11.10459 | 1362 ft | 179 kts | 195° |
| 2026-05-07 20:13 | 60.15794 | 11.09769 | 2119 ft | 185 kts | 195° |
| 2026-05-07 20:14 | 60.14493 | 11.09062 | 2552 ft | 205 kts | 189° |
| 2026-05-07 20:14 | 60.13016 | 11.09428 | 2962 ft | 229 kts | 154° |
| 2026-05-07 20:14 | 60.11733 | 11.11569 | 3508 ft | 251 kts | 134° |
| 2026-05-07 20:14 | 60.10533 | 11.14125 | 4407 ft | 258 kts | 133° |
| 2026-05-07 20:15 | 60.09300 | 11.16773 | 5386 ft | 262 kts | 133° |
| 2026-05-07 20:15 | 60.08125 | 11.19598 | 6335 ft | 268 kts | 120° |
| 2026-05-07 20:15 | 60.07564 | 11.23164 | 7192 ft | 274 kts | 93° |
| 2026-05-07 20:15 | 60.07877 | 11.26936 | 8048 ft | 280 kts | 66° |
| 2026-05-07 20:16 | 60.09016 | 11.30098 | 8905 ft | 285 kts | 43° |
| 2026-05-07 20:16 | 60.10444 | 11.32901 | 9798 ft | 290 kts | 47° |
| 2026-05-07 20:16 | 60.11518 | 11.36375 | 10477 ft | 303 kts | 70° |
| 2026-05-07 20:16 | 60.11932 | 11.40671 | 10769 ft | 327 kts | 83° |
| 2026-05-07 20:17 | 60.12187 | 11.45255 | 11258 ft | 341 kts | 84° |
| 2026-05-07 20:17 | 60.12437 | 11.50045 | 11982 ft | 348 kts | 84° |
| 2026-05-07 20:17 | 60.12688 | 11.54917 | 12739 ft | 355 kts | 84° |
| 2026-05-07 20:17 | 60.12947 | 11.59880 | 13500 ft | 360 kts | 83° |
| 2026-05-07 20:18 | 60.13218 | 11.64916 | 14197 ft | 366 kts | 83° |
| 2026-05-07 20:18 | 60.13499 | 11.70034 | 14857 ft | 372 kts | 83° |
| 2026-05-07 20:18 | 60.13785 | 11.75225 | 15515 ft | 377 kts | 83° |
| 2026-05-07 20:18 | 60.14074 | 11.80483 | 16171 ft | 382 kts | 83° |
| 2026-05-07 20:19 | 60.14358 | 11.85752 | 16810 ft | 387 kts | 83° |
| 2026-05-07 20:19 | 60.14644 | 11.91153 | 17465 ft | 392 kts | 83° |
| 2026-05-07 20:19 | 60.14928 | 11.96628 | 18106 ft | 397 kts | 83° |
| 2026-05-07 20:19 | 60.15212 | 12.02177 | 18677 ft | 402 kts | 83° |
| 2026-05-07 20:20 | 60.15501 | 12.07783 | 19231 ft | 407 kts | 83° |
| 2026-05-07 20:20 | 60.15795 | 12.13467 | 19798 ft | 411 kts | 83° |
| 2026-05-07 20:20 | 60.16091 | 12.19198 | 20358 ft | 415 kts | 83° |
| 2026-05-07 20:20 | 60.16386 | 12.25001 | 20921 ft | 420 kts | 83° |
| 2026-05-07 20:21 | 60.16682 | 12.30865 | 21485 ft | 424 kts | 82° |
| 2026-05-07 20:21 | 60.16978 | 12.36783 | 22040 ft | 428 kts | 82° |
| 2026-05-07 20:21 | 60.17273 | 12.42765 | 22607 ft | 434 kts | 82° |
| 2026-05-07 20:21 | 60.17566 | 12.48757 | 23107 ft | 439 kts | 82° |
| 2026-05-07 20:22 | 60.17874 | 12.54886 | 23644 ft | 443 kts | 81° |
| 2026-05-07 20:22 | 60.18235 | 12.61053 | 24088 ft | 447 kts | 80° |
| 2026-05-07 20:22 | 60.18642 | 12.67269 | 24515 ft | 450 kts | 79° |
| 2026-05-07 20:22 | 60.19077 | 12.73515 | 24940 ft | 453 kts | 79° |
| 2026-05-07 20:23 | 60.19518 | 12.79815 | 25354 ft | 457 kts | 79° |
| 2026-05-07 20:23 | 60.19954 | 12.86166 | 25759 ft | 460 kts | 79° |
| 2026-05-07 20:23 | 60.20378 | 12.92560 | 26156 ft | 464 kts | 79° |
| 2026-05-07 20:23 | 60.20794 | 12.99013 | 26536 ft | 467 kts | 79° |
| 2026-05-07 20:24 | 60.21200 | 13.05430 | 26913 ft | 470 kts | 79° |
| 2026-05-07 20:24 | 60.21607 | 13.11965 | 27296 ft | 473 kts | 79° |
| 2026-05-07 20:24 | 60.22017 | 13.18558 | 27679 ft | 476 kts | 79° |
| 2026-05-07 20:24 | 60.22425 | 13.25187 | 28055 ft | 479 kts | 79° |
| 2026-05-07 20:25 | 60.22833 | 13.31867 | 28416 ft | 482 kts | 79° |
| 2026-05-07 20:25 | 60.23243 | 13.38593 | 28777 ft | 485 kts | 79° |
| 2026-05-07 20:25 | 60.23654 | 13.45356 | 29112 ft | 488 kts | 79° |
| 2026-05-07 20:25 | 60.24063 | 13.52153 | 29455 ft | 491 kts | 79° |
| 2026-05-07 20:26 | 60.24473 | 13.58997 | 29804 ft | 494 kts | 79° |
| 2026-05-07 20:26 | 60.24875 | 13.65779 | 30129 ft | 496 kts | 79° |
| 2026-05-07 20:26 | 60.25285 | 13.72698 | 30404 ft | 499 kts | 79° |
| 2026-05-07 20:26 | 60.25691 | 13.79648 | 30669 ft | 501 kts | 79° |
| 2026-05-07 20:27 | 60.26092 | 13.86639 | 30932 ft | 503 kts | 80° |
| 2026-05-07 20:27 | 60.26485 | 13.93645 | 31192 ft | 505 kts | 80° |
| 2026-05-07 20:27 | 60.26878 | 14.00691 | 31445 ft | 507 kts | 80° |
| 2026-05-07 20:27 | 60.27272 | 14.07759 | 31690 ft | 509 kts | 80° |
| 2026-05-07 20:28 | 60.27658 | 14.14747 | 32009 ft | 508 kts | 80° |
| 2026-05-07 20:28 | 60.28042 | 14.21816 | 32352 ft | 507 kts | 80° |
| 2026-05-07 20:28 | 60.28422 | 14.28889 | 32693 ft | 508 kts | 80° |
| 2026-05-07 20:28 | 60.28800 | 14.35980 | 32961 ft | 509 kts | 80° |
| 2026-05-07 20:29 | 60.29177 | 14.43078 | 33262 ft | 510 kts | 80° |
| 2026-05-07 20:29 | 60.29551 | 14.50184 | 33581 ft | 510 kts | 80° |
| 2026-05-07 20:29 | 60.29922 | 14.57294 | 33913 ft | 510 kts | 81° |
| 2026-05-07 20:29 | 60.30287 | 14.64399 | 34238 ft | 509 kts | 81° |
| 2026-05-07 20:30 | 60.30647 | 14.71493 | 34528 ft | 509 kts | 81° |
| 2026-05-07 20:30 | 60.30999 | 14.78494 | 34836 ft | 508 kts | 81° |
| 2026-05-07 20:30 | 60.31352 | 14.85573 | 35099 ft | 507 kts | 82° |
| 2026-05-07 20:31 | 60.32039 | 14.99631 | 35183 ft | 500 kts | 82° |
| 2026-05-07 20:31 | 60.32701 | 15.13568 | 35172 ft | 499 kts | 82° |
| 2026-05-07 20:32 | 60.33350 | 15.27501 | 35171 ft | 498 kts | 82° |
| 2026-05-07 20:32 | 60.33986 | 15.41434 | 35166 ft | 498 kts | 82° |
| 2026-05-07 20:33 | 60.34610 | 15.55274 | 35163 ft | 498 kts | 82° |
| 2026-05-07 20:33 | 60.35217 | 15.69213 | 35160 ft | 498 kts | 83° |
| 2026-05-07 20:34 | 60.35809 | 15.83145 | 35175 ft | 498 kts | 83° |
| 2026-05-07 20:34 | 60.36387 | 15.97075 | 35197 ft | 497 kts | 83° |
| 2026-05-07 20:35 | 60.36948 | 16.11013 | 35210 ft | 499 kts | 83° |
| 2026-05-07 20:35 | 60.37491 | 16.24877 | 35184 ft | 498 kts | 83° |
| 2026-05-07 20:36 | 60.38027 | 16.38847 | 35179 ft | 499 kts | 83° |
| 2026-05-07 20:36 | 60.38551 | 16.52846 | 35181 ft | 499 kts | 84° |
| 2026-05-07 20:37 | 60.39059 | 16.66856 | 35173 ft | 500 kts | 84° |
| 2026-05-07 20:37 | 60.39554 | 16.80781 | 35189 ft | 500 kts | 84° |
| 2026-05-07 20:38 | 60.40034 | 16.94809 | 35190 ft | 500 kts | 84° |
| 2026-05-07 20:38 | 60.40496 | 17.08842 | 35180 ft | 500 kts | 84° |
| 2026-05-07 20:39 | 60.40943 | 17.22884 | 35185 ft | 500 kts | 84° |
| 2026-05-07 20:39 | 60.41368 | 17.36840 | 35195 ft | 500 kts | 85° |
| 2026-05-07 20:40 | 60.41795 | 17.50884 | 35188 ft | 500 kts | 85° |
| 2026-05-07 20:40 | 60.42202 | 17.64937 | 35202 ft | 500 kts | 85° |
| 2026-05-07 20:41 | 60.42595 | 17.78987 | 35202 ft | 500 kts | 85° |
| 2026-05-07 20:41 | 60.42957 | 17.92940 | 35201 ft | 500 kts | 85° |
| 2026-05-07 20:42 | 60.43313 | 18.06993 | 35199 ft | 499 kts | 85° |
| 2026-05-07 20:42 | 60.43656 | 18.21033 | 35194 ft | 500 kts | 85° |
| 2026-05-07 20:43 | 60.43990 | 18.35089 | 35207 ft | 500 kts | 85° |
| 2026-05-07 20:43 | 60.44313 | 18.49061 | 35215 ft | 500 kts | 86° |
| 2026-05-07 20:44 | 60.44614 | 18.63139 | 35196 ft | 500 kts | 86° |
| 2026-05-07 20:44 | 60.44900 | 18.77206 | 35206 ft | 500 kts | 86° |
| 2026-05-07 20:45 | 60.45172 | 18.91290 | 35220 ft | 500 kts | 86° |
| 2026-05-07 20:45 | 60.45424 | 19.05372 | 35222 ft | 500 kts | 86° |
| 2026-05-07 20:46 | 60.45662 | 19.19347 | 35220 ft | 500 kts | 86° |
| 2026-05-07 20:46 | 60.45889 | 19.33412 | 35213 ft | 499 kts | 86° |
| 2026-05-07 20:47 | 60.46108 | 19.47485 | 35217 ft | 499 kts | 87° |
| 2026-05-07 20:47 | 60.46300 | 19.61553 | 35219 ft | 499 kts | 87° |
| 2026-05-07 20:48 | 60.46474 | 19.75527 | 35261 ft | 500 kts | 87° |
| 2026-05-07 20:48 | 60.46641 | 19.89608 | 35237 ft | 500 kts | 87° |
| 2026-05-07 20:49 | 60.46797 | 20.03711 | 35224 ft | 500 kts | 87° |
| 2026-05-07 20:49 | 60.46939 | 20.17806 | 35214 ft | 501 kts | 88° |
| 2026-05-07 20:50 | 60.47062 | 20.31914 | 35216 ft | 501 kts | 88° |
| 2026-05-07 20:50 | 60.47172 | 20.45940 | 35216 ft | 501 kts | 88° |
| 2026-05-07 20:51 | 60.47266 | 20.60061 | 35213 ft | 501 kts | 88° |
| 2026-05-07 20:51 | 60.47342 | 20.74183 | 35207 ft | 501 kts | 88° |
| 2026-05-07 20:52 | 60.47403 | 20.88306 | 35211 ft | 501 kts | 89° |
| 2026-05-07 20:52 | 60.47446 | 21.02336 | 35213 ft | 501 kts | 89° |
| 2026-05-07 20:53 | 60.47481 | 21.16466 | 35214 ft | 501 kts | 89° |
| 2026-05-07 20:53 | 60.47508 | 21.30592 | 35207 ft | 501 kts | 89° |
| 2026-05-07 20:54 | 60.47494 | 21.44716 | 35201 ft | 501 kts | 90° |
| 2026-05-07 20:54 | 60.47398 | 21.58841 | 35242 ft | 501 kts | 90° |
| 2026-05-07 20:55 | 60.47269 | 21.72869 | 35034 ft | 501 kts | 90° |
| 2026-05-07 20:55 | 60.47204 | 21.79925 | 34797 ft | 501 kts | 90° |
| 2026-05-07 20:55 | 60.47141 | 21.86974 | 34551 ft | 500 kts | 90° |
| 2026-05-07 20:55 | 60.47078 | 21.94019 | 33870 ft | 500 kts | 90° |
| 2026-05-07 20:56 | 60.47010 | 22.01067 | 33185 ft | 498 kts | 90° |
| 2026-05-07 20:56 | 60.46938 | 22.08062 | 32514 ft | 496 kts | 90° |
| 2026-05-07 20:56 | 60.46861 | 22.14937 | 31850 ft | 493 kts | 90° |
| 2026-05-07 20:56 | 60.46779 | 22.21867 | 31215 ft | 491 kts | 91° |
| 2026-05-07 20:57 | 60.46692 | 22.28782 | 30560 ft | 490 kts | 91° |
| 2026-05-07 20:57 | 60.46602 | 22.35672 | 29847 ft | 488 kts | 91° |
| 2026-05-07 20:57 | 60.46512 | 22.42532 | 29221 ft | 484 kts | 91° |
| 2026-05-07 20:57 | 60.46422 | 22.49318 | 28629 ft | 480 kts | 90° |
| 2026-05-07 20:58 | 60.46332 | 22.56031 | 28088 ft | 474 kts | 90° |
| 2026-05-07 20:58 | 60.46241 | 22.62675 | 27560 ft | 469 kts | 90° |
| 2026-05-07 20:58 | 60.46144 | 22.69253 | 27035 ft | 465 kts | 91° |
| 2026-05-07 20:58 | 60.46042 | 22.75762 | 26528 ft | 460 kts | 91° |
| 2026-05-07 20:59 | 60.45939 | 22.82127 | 26036 ft | 456 kts | 91° |
| 2026-05-07 20:59 | 60.45833 | 22.88522 | 25556 ft | 452 kts | 91° |
| 2026-05-07 20:59 | 60.45724 | 22.94859 | 25092 ft | 448 kts | 91° |
| 2026-05-07 20:59 | 60.45614 | 23.01140 | 24618 ft | 445 kts | 91° |
| 2026-05-07 21:00 | 60.45501 | 23.07384 | 24154 ft | 442 kts | 91° |
| 2026-05-07 21:00 | 60.45387 | 23.13582 | 23659 ft | 439 kts | 91° |
| 2026-05-07 21:00 | 60.45271 | 23.19742 | 23144 ft | 436 kts | 91° |
| 2026-05-07 21:00 | 60.45155 | 23.25843 | 22771 ft | 431 kts | 91° |
| 2026-05-07 21:01 | 60.45037 | 23.31811 | 22501 ft | 428 kts | 91° |
| 2026-05-07 21:01 | 60.44916 | 23.37806 | 22200 ft | 424 kts | 91° |
| 2026-05-07 21:01 | 60.44794 | 23.43769 | 21658 ft | 423 kts | 91° |
| 2026-05-07 21:01 | 60.44670 | 23.49705 | 21148 ft | 422 kts | 91° |
| 2026-05-07 21:02 | 60.44544 | 23.55642 | 20536 ft | 423 kts | 91° |
| 2026-05-07 21:02 | 60.44414 | 23.61579 | 19979 ft | 422 kts | 91° |
| 2026-05-07 21:02 | 60.44281 | 23.67519 | 19420 ft | 422 kts | 91° |
| 2026-05-07 21:02 | 60.44147 | 23.73449 | 18863 ft | 422 kts | 91° |
| 2026-05-07 21:03 | 60.44010 | 23.79378 | 18290 ft | 421 kts | 91° |
| 2026-05-07 21:03 | 60.43875 | 23.85199 | 17821 ft | 416 kts | 90° |
| 2026-05-07 21:03 | 60.44002 | 23.90998 | 17316 ft | 410 kts | 80° |
| 2026-05-07 21:03 | 60.44338 | 23.96693 | 16886 ft | 404 kts | 81° |
| 2026-05-07 21:04 | 60.44657 | 24.02253 | 16747 ft | 391 kts | 81° |
| 2026-05-07 21:04 | 60.44964 | 24.07644 | 16612 ft | 379 kts | 81° |
| 2026-05-07 21:04 | 60.45259 | 24.12874 | 16475 ft | 368 kts | 80° |
| 2026-05-07 21:04 | 60.45544 | 24.17948 | 15973 ft | 358 kts | 81° |
| 2026-05-07 21:05 | 60.45617 | 24.22964 | 15331 ft | 355 kts | 93° |
| 2026-05-07 21:05 | 60.45178 | 24.27858 | 14706 ft | 351 kts | 107° |
| 2026-05-07 21:05 | 60.44328 | 24.32372 | 14084 ft | 346 kts | 113° |
| 2026-05-07 21:05 | 60.43417 | 24.36864 | 13479 ft | 344 kts | 112° |
| 2026-05-07 21:06 | 60.42518 | 24.41299 | 13193 ft | 338 kts | 112° |
| 2026-05-07 21:06 | 60.41629 | 24.45689 | 12815 ft | 336 kts | 112° |
| 2026-05-07 21:06 | 60.40746 | 24.50042 | 12464 ft | 333 kts | 112° |
| 2026-05-07 21:06 | 60.39876 | 24.54328 | 12010 ft | 327 kts | 112° |
| 2026-05-07 21:07 | 60.39016 | 24.58541 | 11363 ft | 321 kts | 112° |
| 2026-05-07 21:07 | 60.38166 | 24.62678 | 10774 ft | 315 kts | 112° |
| 2026-05-07 21:07 | 60.37347 | 24.66659 | 10209 ft | 308 kts | 112° |
| 2026-05-07 21:07 | 60.36502 | 24.70577 | 9579 ft | 301 kts | 118° |
| 2026-05-07 21:08 | 60.35314 | 24.73971 | 9360 ft | 297 kts | 133° |
| 2026-05-07 21:08 | 60.33771 | 24.76718 | 8994 ft | 295 kts | 147° |
| 2026-05-07 21:08 | 60.31986 | 24.78714 | 8599 ft | 292 kts | 154° |
| 2026-05-07 21:08 | 60.30187 | 24.80567 | 8198 ft | 289 kts | 154° |
| 2026-05-07 21:09 | 60.28402 | 24.82399 | 7800 ft | 287 kts | 154° |
| 2026-05-07 21:09 | 60.26635 | 24.84214 | 7410 ft | 284 kts | 154° |
| 2026-05-07 21:09 | 60.24904 | 24.85991 | 7030 ft | 281 kts | 154° |
| 2026-05-07 21:09 | 60.23169 | 24.87767 | 6647 ft | 279 kts | 153° |
| 2026-05-07 21:10 | 60.21449 | 24.89525 | 6247 ft | 276 kts | 153° |
| 2026-05-07 21:10 | 60.19742 | 24.91268 | 5866 ft | 274 kts | 153° |
| 2026-05-07 21:10 | 60.18042 | 24.93005 | 5468 ft | 274 kts | 153° |
| 2026-05-07 21:10 | 60.16357 | 24.94728 | 5181 ft | 267 kts | 152° |
| 2026-05-07 21:11 | 60.14750 | 24.96408 | 5048 ft | 254 kts | 147° |
| 2026-05-07 21:11 | 60.13558 | 24.98830 | 4856 ft | 240 kts | 114° |
| 2026-05-07 21:11 | 60.13617 | 25.05015 | 4288 ft | 228 kts | 59° |
| 2026-05-07 21:12 | 60.14337 | 25.07831 | 3941 ft | 226 kts | 60° |
| 2026-05-07 21:12 | 60.15128 | 25.10519 | 3600 ft | 221 kts | 43° |
| 2026-05-07 21:12 | 60.16394 | 25.12057 | 3276 ft | 212 kts | 11° |
| 2026-05-07 21:12 | 60.17830 | 25.11916 | 2986 ft | 207 kts | 340° |
| 2026-05-07 21:13 | 60.19117 | 25.10672 | 2705 ft | 204 kts | 334° |
| 2026-05-07 21:13 | 60.20372 | 25.09390 | 2426 ft | 200 kts | 334° |
| 2026-05-07 21:13 | 60.21579 | 25.08158 | 2155 ft | 190 kts | 334° |
| 2026-05-07 21:13 | 60.22711 | 25.07001 | 1906 ft | 176 kts | 334° |
| 2026-05-07 21:14 | 60.23769 | 25.05920 | 1702 ft | 162 kts | 334° |
| 2026-05-07 21:14 | 60.24711 | 25.04956 | 1493 ft | 144 kts | 334° |
| 2026-05-07 21:14 | 60.25560 | 25.04087 | 1300 ft | 132 kts | 334° |
| 2026-05-07 21:14 | 60.26359 | 25.03270 | 1121 ft | 127 kts | 334° |
| 2026-05-07 21:15 | 60.27142 | 25.02473 | 953 ft | 125 kts | 333° |
| 2026-05-07 21:15 | 60.27920 | 25.01682 | 786 ft | 125 kts | 332° |
| 2026-05-07 21:15 | 60.28692 | 25.00895 | 623 ft | 124 kts | 332° |
| 2026-05-07 21:15 | 60.29463 | 25.00109 | 478 ft | 124 kts | 332° |
| 2026-05-07 21:16 | 60.30237 | 24.99316 | 360 ft | 125 kts | 331° |
| 2026-05-07 21:16 | 60.31001 | 24.98529 | 194 ft | 124 kts | 332° |
| 2026-05-07 21:16 | 60.31687 | 24.97822 | 152 ft | 83 kts | 333° |
| 2026-05-07 21:16 | 60.31987 | 24.97513 | 154 ft | 34 kts | 333° |
| 2026-05-07 21:17 | 60.32184 | 24.97308 | 156 ft | 30 kts | 332° |
| 2026-05-07 21:17 | 60.32334 | 24.97158 | 160 ft | 14 kts | 333° |
| 2026-05-07 21:17 | 60.32389 | 24.97036 | 164 ft | 11 kts | 281° |
| 2026-05-07 21:17 | 60.32358 | 24.96905 | 165 ft | 9 kts | 227° |
| 2026-05-07 21:18 | 60.32325 | 24.96849 | 165 ft | 5 kts | 199° |
| 2026-05-07 21:18 | 60.32275 | 24.96878 | 165 ft | 10 kts | 154° |
| 2026-05-07 21:18 | 60.32215 | 24.96939 | 165 ft | 9 kts | 153° |
| 2026-05-07 21:18 | 60.32169 | 24.96989 | 166 ft | 6 kts | 152° |
| 2026-05-07 21:19 | 60.32122 | 24.97037 | 167 ft | 9 kts | 152° |
| 2026-05-07 21:19 | 60.32071 | 24.97091 | 168 ft | 10 kts | 153° |
| 2026-05-07 21:19 | 60.32000 | 24.97164 | 168 ft | 12 kts | 153° |
| 2026-05-07 21:19 | 60.31926 | 24.97153 | 167 ft | 11 kts | 222° |
| 2026-05-07 21:20 | 60.31863 | 24.97151 | 166 ft | 9 kts | 152° |
| 2026-05-07 21:20 | 60.31808 | 24.97210 | 166 ft | 9 kts | 152° |
| 2026-05-07 21:20 | 60.31756 | 24.97265 | 166 ft | 8 kts | 153° |
| 2026-05-07 21:20 | 60.31711 | 24.97310 | 166 ft | 6 kts | 154° |
| 2026-05-07 21:21 | 60.31693 | 24.97314 | 167 ft | 0 kts | 222° |
| 2026-05-07 21:21 | 60.31693 | 24.97303 | 167 ft | 1 kts | 257° |
| 2026-05-07 21:21 | 60.31681 | 24.97241 | 167 ft | 2 kts | 243° |
| 2026-05-07 21:21 | 60.31675 | 24.97217 | 167 ft | 1 kts | 243° |
| 2026-05-07 21:22 | 60.31673 | 24.97210 | 167 ft | 0 kts | 243° |